Airfield :
LOGIN :

Register | Disclaimer

   EN    FR    IT 

 










Legend :    VFR   Marginal VFR   IFR   Intensive IFR   Very Intensive IFR
Visi :
Ceiling :
>= 8 km
>= 3000ft
5 to 8 km
1000 to 3000 ft
1500m to 5 km
500 to 1000 ft
800 to 1500m
200 to 500 ft
< 800m
< 200 ft
Symbols :   Thunderstorms  Fog  Heavy snow  Heavy precipitations  Wind > 20 kt
SIGMETs :     Misc.  Thunderstorms  Icing  Turbulence  Mountain Waves  Volcanic Ashes






- Airport Elevation : 396 ft


LFOZ - Orléans St Denis

CURRENT METAR :
  • 241400Z AUTO 23012KT 9999 FEW042 BKN056 OVC076 15/12 Q1003

EXPIRED METARs :
  • 241330Z AUTO 23017KT 7000 -RA FEW022/// SCT038/// BKN048/// ///TCU 15/12 Q1004
  • 241300Z AUTO 24011KT 9999 BKN037/// BKN044/// BKN060/// ///CB 16/11 Q1004
  • 241230Z AUTO 22018G31KT 9999 SCT048/// BKN054/// OVC190/// ///TCU 19/09 Q1004
  • 241200Z AUTO 21016KT 9999 SCT044/// OVC190/// ///TCU 20/10 Q1004

TAF N/A



MET'MAP, your aeronautical weather chart ! - Copyright ORBIFLY December 2007 - Disclaimer

ORBIFLY MET'MAP TEAM :

Programming & Development : Alexandra Zaïnal
Concept & original design : Baudouin d'Aumeries
Assistance for programming : Marc-Olivier Méhu
Technical & hardware support : Manuel Goepfert

Contact : metmap@orbifly.com




SOURCES & CREDITS :

   NOAA